createdAt,value
2017-10-17T00:08:09.321Z,6.9
2017-10-17T00:18:21.229Z,6.6
2017-10-17T00:29:06.626Z,10.1
2017-10-17T00:39:21.243Z,5.9
2017-10-17T00:49:35.251Z,7.7
2017-10-17T00:59:49.387Z,6.4
2017-10-17T01:10:03.641Z,4.6
2017-10-17T01:20:17.919Z,7.4
2017-10-17T01:30:31.995Z,5.2
2017-10-17T01:40:46.144Z,8.5
2017-10-17T01:51:32.023Z,11.7
2017-10-17T02:01:46.427Z,7.6
2017-10-17T02:12:00.897Z,6.0
2017-10-17T02:22:14.938Z,8.7
2017-10-17T02:32:29.034Z,6.7
2017-10-17T02:42:43.621Z,8.3
2017-10-17T02:53:28.961Z,10.1
2017-10-17T03:03:43.193Z,11.0
2017-10-17T03:13:57.747Z,9.9
2017-10-17T03:24:09.985Z,11.3
2017-10-17T03:34:55.282Z,9.0
2017-10-17T03:45:41.098Z,9.2
2017-10-17T03:55:55.410Z,5.9
2017-10-17T04:06:09.838Z,4.7
2017-10-17T04:16:24.052Z,3.7
2017-10-17T04:26:38.166Z,3.0
2017-10-17T04:36:50.275Z,3.6
2017-10-17T04:47:35.860Z,4.2
2017-10-17T04:58:21.951Z,6.5
2017-10-17T05:08:35.964Z,4.3
2017-10-17T05:18:47.298Z,3.4
2017-10-17T05:29:01.797Z,2.0
2017-10-17T05:39:15.656Z,2.1
2017-10-17T05:50:01.779Z,3.2
2017-10-17T06:00:14.089Z,1.6
2017-10-17T06:10:28.218Z,2.9
2017-10-17T06:20:42.076Z,3.0
2017-10-17T06:30:56.688Z,2.6
2017-10-17T06:41:10.704Z,2.2
2017-10-17T06:51:24.617Z,1.7
2017-10-17T08:31:11.632Z,5.2
2017-10-17T08:41:56.506Z,3.6
2017-10-17T08:52:14.804Z,2.8
2017-10-17T09:03:00.341Z,2.1
2017-10-17T09:13:25.337Z,1.8
2017-10-17T09:24:14.707Z,1.6
2017-10-17T09:34:28.708Z,3.8
2017-10-17T09:44:46.514Z,3.6
2017-10-17T09:55:40.450Z,2.2
2017-10-17T10:05:59.655Z,0.9
2017-10-17T10:16:50.085Z,2.0
2017-10-17T10:27:34.533Z,2.4
2017-10-17T10:37:48.807Z,1.6
2017-10-17T10:48:02.750Z,2.2
2017-10-17T10:59:16.936Z,3.4
2017-10-17T11:10:12.242Z,1.5
2017-10-17T11:20:26.479Z,2.8
2017-10-17T11:30:49.203Z,2.8
2017-10-17T11:41:09.829Z,1.9
2017-10-17T11:52:16.694Z,2.1
2017-10-17T12:03:07.062Z,2.3
2017-10-17T12:13:34.282Z,2.9
2017-10-17T12:23:46.269Z,1.8
2017-10-17T12:34:01.893Z,2.8
2017-10-17T12:45:45.833Z,2.2
2017-10-17T12:56:30.583Z,3.0
2017-10-17T13:06:46.808Z,3.3
2017-10-17T13:17:27.442Z,5.0
2017-10-17T13:27:57.977Z,3.2
2017-10-17T13:39:01.460Z,2.8
2017-10-17T13:49:23.476Z,2.6
2017-10-17T14:00:11.410Z,3.6
2017-10-17T14:12:31.548Z,3.0
2017-10-17T14:24:31.552Z,3.3
2017-10-17T14:35:15.560Z,3.1
2017-10-17T14:46:00.410Z,3.1
2017-10-17T14:56:11.520Z,3.9
2017-10-17T15:06:25.938Z,3.4
2017-10-17T15:16:41.956Z,2.5
2017-10-17T15:26:53.184Z,3.3
2017-10-17T15:37:07.528Z,3.7
2017-10-17T15:47:55.139Z,3.9
2017-10-17T15:58:09.334Z,3.0
2017-10-17T16:08:59.571Z,2.4
2017-10-17T16:19:13.465Z,2.0
2017-10-17T16:29:28.636Z,2.0
2017-10-17T16:39:41.693Z,1.9
2017-10-17T16:49:55.202Z,1.9
2017-10-17T17:00:06.453Z,1.9
2017-10-17T17:10:20.735Z,3.0
2017-10-17T17:20:34.869Z,3.8
2017-10-17T17:30:49.209Z,2.4
2017-10-17T17:41:00.705Z,3.5
2017-10-17T17:51:15.302Z,4.3
2017-10-17T18:01:33.927Z,4.1
2017-10-17T18:11:57.109Z,2.8
2017-10-17T18:22:51.328Z,3.2
2017-10-17T18:33:37.948Z,2.4
2017-10-17T18:43:54.283Z,3.5
2017-10-17T18:54:14.134Z,2.9
2017-10-17T19:04:31.328Z,4.0
2017-10-17T19:15:16.731Z,4.8
2017-10-17T19:26:08.975Z,5.4
2017-10-17T19:36:27.337Z,3.8
2017-10-17T19:47:22.768Z,4.3
2017-10-17T19:57:38.246Z,4.4
2017-10-17T20:08:29.109Z,4.2
2017-10-17T20:18:56.145Z,2.9
2017-10-17T20:29:21.876Z,1.2
2017-10-17T20:40:14.828Z,1.1
2017-10-17T20:50:28.793Z,0.3
2017-10-17T21:00:42.756Z,1.3
2017-10-17T21:10:56.220Z,0.3
2017-10-17T21:21:10.594Z,0.3
2017-10-17T21:31:24.906Z,0.3
2017-10-17T21:41:39.131Z,0.2
2017-10-17T21:51:53.261Z,0.3
2017-10-17T22:02:38.112Z,0.3
2017-10-17T22:12:52.277Z,0.2
2017-10-17T22:23:06.560Z,0.3
2017-10-17T22:33:20.830Z,0.2
2017-10-17T22:43:34.984Z,0.3
2017-10-17T22:53:49.152Z,0.2
2017-10-17T23:04:03.405Z,0.3
2017-10-17T23:14:48.150Z,0.2
2017-10-17T23:25:02.387Z,0.3
2017-10-17T23:35:16.584Z,0.2
2017-10-17T23:45:30.771Z,0.3
2017-10-17T23:56:15.504Z,2.1
